Time;durP1;ratioP1;P1;durP2;ratioP2;P2;SDS_P1;SDS_P2;PMS_P1;PMS_P2;Temp;Humidity;BMP_temperature;BMP_pressure;BME280_temperature;BME280_humidity;BME280_pressure;Samples;Min_cycle;Max_cycle;Signal;HPM_P1;HPM_P2
2022/08/20 00:02:26;;;;;;;0.90;0.90;;;;;18.50;96004.00;;;;5115737;28;20198;-62
2022/08/20 00:04:53;;;;;;;0.70;0.70;;;;;18.50;96003.00;;;;5115770;28;20687;-61
2022/08/20 00:07:20;;;;;;;0.60;0.60;;;;;18.50;95997.00;;;;5115611;28;20282;-60
2022/08/20 00:09:46;;;;;;;0.60;0.60;;;;;18.60;95998.00;;;;5115539;28;20217;-60
2022/08/20 00:12:16;;;;;;;0.73;0.73;;;;;18.60;95998.00;;;;5115803;28;20194;-61
2022/08/20 00:14:43;;;;;;;0.50;0.50;;;;;18.60;96001.00;;;;5115347;28;20233;-60
2022/08/20 00:17:11;;;;;;;0.50;0.50;;;;;18.70;96001.00;;;;5115591;28;20208;-63
2022/08/20 00:19:37;;;;;;;0.60;0.60;;;;;18.70;96000.00;;;;5116681;28;20198;-60
2022/08/20 00:22:05;;;;;;;0.57;0.57;;;;;18.70;95994.00;;;;5101203;28;20259;-63
2022/08/20 00:24:32;;;;;;;0.40;0.40;;;;;18.70;96001.00;;;;5115582;28;20205;-61
2022/08/20 00:26:58;;;;;;;0.60;0.60;;;;;18.70;96003.00;;;;5115331;28;20214;-59
2022/08/20 00:29:25;;;;;;;0.40;0.40;;;;;18.70;96004.00;;;;5115306;28;20218;-59
2022/08/20 00:31:52;;;;;;;0.67;0.67;;;;;18.70;96003.00;;;;5115251;28;20221;-59
2022/08/20 00:34:20;;;;;;;0.50;0.50;;;;;18.70;95995.00;;;;5115244;28;20622;-60
2022/08/20 00:36:47;;;;;;;0.50;0.50;;;;;18.70;96002.00;;;;5115034;28;20186;-59
2022/08/20 00:39:13;;;;;;;0.40;0.40;;;;;18.70;95994.00;;;;5097079;28;20561;-62
2022/08/20 00:41:42;;;;;;;1.07;0.70;;;;;18.70;96002.00;;;;5115194;28;20334;-60
2022/08/20 00:44:16;;;;;;;0.40;0.40;;;;;18.70;96004.00;;;;5115042;28;20198;-60
2022/08/20 00:46:43;;;;;;;0.53;0.53;;;;;18.80;96003.00;;;;5119410;28;20258;-61
2022/08/20 00:49:28;;;;;;;0.50;0.50;;;;;18.80;96004.00;;;;5097050;28;20242;-61
2022/08/20 00:51:59;;;;;;;0.43;0.43;;;;;18.80;96006.00;;;;5117311;28;20269;-61
2022/08/20 00:54:30;;;;;;;0.60;0.60;;;;;18.80;96010.00;;;;5115444;28;20244;-62
2022/08/20 00:57:02;;;;;;;0.60;0.60;;;;;18.80;96010.00;;;;5114990;28;20213;-60
2022/08/20 00:59:32;;;;;;;0.50;0.50;;;;;18.80;96009.00;;;;5114740;28;20377;-62
2022/08/20 01:02:01;;;;;;;0.40;0.40;;;;;18.80;96019.00;;;;5114730;28;20190;-58
2022/08/20 01:04:32;;;;;;;0.53;0.53;;;;;18.80;96010.00;;;;5114770;28;20629;-61
2022/08/20 01:07:00;;;;;;;0.60;0.60;;;;;18.80;96015.00;;;;5114675;28;20624;-58
2022/08/20 01:09:27;;;;;;;0.47;0.47;;;;;18.70;96017.00;;;;5114590;28;20229;-60
2022/08/20 01:11:54;;;;;;;0.50;0.50;;;;;18.80;96016.00;;;;5114538;28;20214;-60
2022/08/20 01:14:27;;;;;;;0.50;0.50;;;;;18.80;96023.00;;;;5114546;28;20201;-60
2022/08/20 01:16:59;;;;;;;0.60;0.60;;;;;18.90;96016.00;;;;5114481;28;20252;-61
2022/08/20 01:19:32;;;;;;;0.30;0.30;;;;;18.80;96014.00;;;;5114709;28;20220;-60
2022/08/20 01:22:01;;;;;;;0.60;0.60;;;;;18.80;96013.00;;;;5114557;28;20217;-60
2022/08/20 01:24:35;;;;;;;0.60;0.60;;;;;18.80;96021.00;;;;5096681;28;20271;-61
2022/08/20 01:27:04;;;;;;;0.70;0.70;;;;;18.80;96020.00;;;;5114512;28;20198;-60
2022/08/20 01:29:36;;;;;;;0.40;0.40;;;;;18.80;96027.00;;;;5114370;28;20232;-60
2022/08/20 01:32:03;;;;;;;0.40;0.40;;;;;18.80;96027.00;;;;5114453;28;20229;-61
2022/08/20 01:34:30;;;;;;;0.40;0.40;;;;;18.80;96025.00;;;;5114335;28;20186;-61
2022/08/20 01:36:57;;;;;;;0.43;0.43;;;;;18.70;96027.00;;;;5114250;28;20629;-60
2022/08/20 01:39:28;;;;;;;0.30;0.30;;;;;18.70;96025.00;;;;5114174;28;20240;-61
2022/08/20 01:42:04;;;;;;;0.57;0.57;;;;;18.70;96029.00;;;;5114235;28;20222;-60
2022/08/20 01:44:32;;;;;;;0.50;0.50;;;;;18.70;96031.00;;;;5114030;28;20661;-61
2022/08/20 01:47:10;;;;;;;0.67;0.67;;;;;18.80;96028.00;;;;5114305;28;20205;-60
2022/08/20 01:49:42;;;;;;;0.50;0.50;;;;;18.70;96032.00;;;;5095888;28;20293;-60
2022/08/20 01:52:13;;;;;;;0.50;0.50;;;;;18.70;96039.00;;;;5114203;28;20198;-62
2022/08/20 01:54:40;;;;;;;0.40;0.40;;;;;18.70;96036.00;;;;5114158;28;20193;-60
2022/08/20 01:57:13;;;;;;;0.67;0.67;;;;;18.70;96038.00;;;;5114245;28;20205;-62
2022/08/20 01:59:43;;;;;;;0.37;0.37;;;;;18.70;96038.00;;;;5114309;28;20205;-60
2022/08/20 02:02:12;;;;;;;0.47;0.47;;;;;18.70;96027.00;;;;5114053;28;20541;-63
2022/08/20 02:04:41;;;;;;;0.57;0.57;;;;;18.70;96036.00;;;;5113892;28;20201;-61
2022/08/20 02:07:13;;;;;;;0.40;0.40;;;;;18.70;96037.00;;;;5113844;28;20220;-61
2022/08/20 02:09:44;;;;;;;0.60;0.60;;;;;18.70;96032.00;;;;5113982;28;20197;-60
2022/08/20 02:12:13;;;;;;;0.60;0.60;;;;;18.80;96039.00;;;;5117594;28;20672;-62
2022/08/20 02:14:44;;;;;;;0.40;0.40;;;;;18.70;96044.00;;;;5120835;28;20547;-60
2022/08/20 02:17:13;;;;;;;0.83;0.83;;;;;18.70;96039.00;;;;5120429;28;20204;-60
2022/08/20 02:19:44;;;;;;;0.40;0.40;;;;;18.70;96052.00;;;;5120644;28;20633;-60
2022/08/20 02:22:23;;;;;;;0.57;0.57;;;;;18.60;96041.00;;;;5120694;28;20590;-62
2022/08/20 02:24:50;;;;;;;0.50;0.50;;;;;18.50;96043.00;;;;5120639;28;20211;-61
2022/08/20 02:27:18;;;;;;;0.50;0.50;;;;;18.40;96045.00;;;;5120630;28;20254;-62
2022/08/20 02:29:46;;;;;;;0.70;0.70;;;;;18.40;96048.00;;;;5120525;28;20300;-63
2022/08/20 02:32:13;;;;;;;0.57;0.57;;;;;18.40;96044.00;;;;5120425;28;20193;-61
2022/08/20 02:34:40;;;;;;;1.30;1.30;;;;;18.40;96039.00;;;;5120453;28;20545;-63
2022/08/20 02:37:07;;;;;;;0.63;0.63;;;;;18.50;96042.00;;;;5120609;28;20190;-61
2022/08/20 02:39:36;;;;;;;0.50;0.50;;;;;18.50;96042.00;;;;5120141;28;20194;-60
2022/08/20 02:42:06;;;;;;;0.50;0.50;;;;;18.50;96037.00;;;;5120264;28;20278;-61
2022/08/20 02:44:37;;;;;;;0.60;0.60;;;;;18.40;96034.00;;;;5120249;28;20285;-61
2022/08/20 02:47:04;;;;;;;0.50;0.50;;;;;18.40;96034.00;;;;5120335;28;20194;-59
2022/08/20 02:49:31;;;;;;;0.40;0.40;;;;;18.40;96033.00;;;;5120032;28;20217;-58
2022/08/20 02:51:57;;;;;;;0.70;0.70;;;;;18.40;96039.00;;;;5119967;28;20556;-59
2022/08/20 02:54:24;;;;;;;0.50;0.50;;;;;18.40;96034.00;;;;5120064;28;20186;-58
2022/08/20 02:56:51;;;;;;;0.80;0.80;;;;;18.40;96030.00;;;;5119947;28;20519;-59
2022/08/20 02:59:18;;;;;;;0.70;0.70;;;;;18.40;96030.00;;;;5119934;28;20261;-59
2022/08/20 03:01:47;;;;;;;1.33;1.03;;;;;18.40;96028.00;;;;5119995;28;20185;-59
2022/08/20 03:04:14;;;;;;;1.00;1.00;;;;;18.30;96025.00;;;;5120020;28;20661;-60
2022/08/20 03:06:40;;;;;;;0.50;0.50;;;;;18.30;96029.00;;;;5119882;28;20689;-60
2022/08/20 03:09:07;;;;;;;1.00;1.00;;;;;18.30;96030.00;;;;5119713;28;20706;-63
2022/08/20 03:11:35;;;;;;;0.93;0.93;;;;;18.30;96031.00;;;;5119911;28;20258;-62
2022/08/20 03:14:02;;;;;;;0.70;0.70;;;;;18.40;96036.00;;;;5119714;28;20264;-62
2022/08/20 03:16:28;;;;;;;0.50;0.50;;;;;18.40;96034.00;;;;5101978;28;20206;-60
2022/08/20 03:18:58;;;;;;;0.60;0.60;;;;;18.40;96034.00;;;;5119661;28;20218;-62
2022/08/20 03:21:25;;;;;;;0.93;0.93;;;;;18.40;96033.00;;;;5119927;28;20636;-63
2022/08/20 03:23:54;;;;;;;0.50;0.50;;;;;18.40;96027.00;;;;5116271;28;20735;-60
2022/08/20 03:26:21;;;;;;;0.57;0.57;;;;;18.50;96037.00;;;;5116539;28;20239;-60
2022/08/20 03:28:48;;;;;;;0.80;0.80;;;;;18.60;96039.00;;;;5116557;28;20214;-60
2022/08/20 03:31:14;;;;;;;1.17;1.17;;;;;18.60;96031.00;;;;5116328;28;20274;-60
2022/08/20 03:33:44;;;;;;;0.50;0.50;;;;;18.50;96029.00;;;;5098133;28;20226;-59
2022/08/20 03:36:11;;;;;;;0.40;0.40;;;;;18.60;96029.00;;;;5116032;28;20222;-59
2022/08/20 03:38:38;;;;;;;0.50;0.50;;;;;18.50;96024.00;;;;5116115;28;20194;-60
2022/08/20 03:41:05;;;;;;;0.77;0.77;;;;;18.50;96031.00;;;;5098214;28;20225;-60
2022/08/20 03:43:32;;;;;;;0.63;0.63;;;;;18.20;96017.00;;;;5116075;28;20321;-59
2022/08/20 03:45:59;;;;;;;0.30;0.30;;;;;18.00;96018.00;;;;5116001;28;20197;-59
2022/08/20 03:48:26;;;;;;;0.53;0.53;;;;;17.90;96016.00;;;;5116024;28;20645;-60
2022/08/20 03:50:54;;;;;;;0.60;0.60;;;;;18.00;96015.00;;;;5116092;28;20201;-61
2022/08/20 03:53:22;;;;;;;0.50;0.50;;;;;18.00;96008.00;;;;5115863;28;20657;-61
2022/08/20 03:55:54;;;;;;;0.73;0.73;;;;;18.00;96015.00;;;;5115932;28;20212;-60
2022/08/20 03:58:22;;;;;;;0.50;0.50;;;;;18.00;96026.00;;;;5097949;28;20234;-60
2022/08/20 04:00:52;;;;;;;1.07;1.07;;;;;18.00;96021.00;;;;5098143;28;20237;-60
2022/08/20 04:03:19;;;;;;;0.80;0.80;;;;;18.00;96019.00;;;;5115689;28;20214;-60
2022/08/20 04:05:46;;;;;;;0.83;0.83;;;;;18.00;96028.00;;;;5097866;28;20289;-61
2022/08/20 04:08:16;;;;;;;0.67;0.67;;;;;18.00;96030.00;;;;5115606;28;20217;-60
2022/08/20 04:10:45;;;;;;;0.90;0.90;;;;;17.90;96027.00;;;;5115670;28;20186;-60
2022/08/20 04:13:17;;;;;;;0.60;0.60;;;;;18.00;96026.00;;;;5115686;28;20202;-61
2022/08/20 04:15:44;;;;;;;0.87;0.87;;;;;18.10;96032.00;;;;5097871;28;20230;-60
2022/08/20 04:18:12;;;;;;;2.03;1.60;;;;;18.10;96032.00;;;;5115570;28;20640;-60
2022/08/20 04:20:42;;;;;;;0.70;0.70;;;;;18.20;96032.00;;;;5115548;28;20222;-60
2022/08/20 04:23:12;;;;;;;0.50;0.50;;;;;18.10;96031.00;;;;5115449;28;20625;-61
2022/08/20 04:25:40;;;;;;;0.67;0.67;;;;;17.90;96041.00;;;;5115329;28;20225;-60
2022/08/20 04:28:10;;;;;;;0.70;0.70;;;;;18.00;96039.00;;;;5097584;28;20236;-60
2022/08/20 04:30:37;;;;;;;0.53;0.53;;;;;18.00;96036.00;;;;5115289;28;20204;-59
2022/08/20 04:33:04;;;;;;;0.70;0.70;;;;;17.90;96037.00;;;;5097329;28;20629;-57
2022/08/20 04:35:32;;;;;;;0.60;0.60;;;;;18.00;96034.00;;;;5114907;28;20230;-61
2022/08/20 04:38:01;;;;;;;0.50;0.50;;;;;18.00;96043.00;;;;5097393;28;20221;-59
2022/08/20 04:43:14;;;;;;;0.70;0.70;;;;;17.90;96042.00;;;;5114993;28;20226;-60
2022/08/20 04:45:41;;;;;;;0.40;0.40;;;;;18.00;96044.00;;;;5115219;28;20220;-60
2022/08/20 04:48:08;;;;;;;0.40;0.40;;;;;18.00;96048.00;;;;5097092;28;20222;-60
2022/08/20 04:50:38;;;;;;;0.63;0.63;;;;;18.00;96050.00;;;;5097247;28;20202;-60
2022/08/20 04:53:07;;;;;;;0.60;0.60;;;;;18.10;96048.00;;;;5114851;28;20210;-61
2022/08/20 04:55:39;;;;;;;0.83;0.83;;;;;18.10;96051.00;;;;5115102;28;20344;-60
2022/08/20 04:58:08;;;;;;;0.40;0.40;;;;;18.10;96052.00;;;;5115111;28;20262;-58
2022/08/20 05:00:36;;;;;;;0.73;0.73;;;;;18.10;96053.00;;;;5114821;28;20275;-59
2022/08/20 05:03:05;;;;;;;0.90;0.90;;;;;18.20;96056.00;;;;5114710;28;20190;-59
2022/08/20 05:05:33;;;;;;;0.60;0.60;;;;;18.20;96060.00;;;;5114720;28;20218;-59
2022/08/20 05:08:01;;;;;;;0.60;0.60;;;;;18.20;96061.00;;;;5114739;28;20224;-59
2022/08/20 05:10:30;;;;;;;0.50;0.50;;;;;18.20;96059.00;;;;5114580;28;20225;-61
2022/08/20 05:13:02;;;;;;;1.80;1.70;;;;;18.20;96059.00;;;;5114622;28;20281;-59
2022/08/20 05:15:29;;;;;;;1.07;1.07;;;;;18.30;96063.00;;;;5114524;28;20220;-60
2022/08/20 05:18:00;;;;;;;0.50;0.50;;;;;18.40;96059.00;;;;5115132;28;20189;-64
2022/08/20 05:20:30;;;;;;;0.67;0.67;;;;;18.40;96058.00;;;;5115071;28;20202;-63
2022/08/20 05:22:57;;;;;;;1.03;1.03;;;;;18.50;96067.00;;;;5114662;28;20649;-61
2022/08/20 05:25:24;;;;;;;0.70;0.70;;;;;18.50;96062.00;;;;5114518;28;20276;-60
2022/08/20 05:27:56;;;;;;;0.70;0.70;;;;;18.50;96073.00;;;;5114234;28;20225;-60
2022/08/20 05:30:26;;;;;;;1.60;1.07;;;;;18.60;96066.00;;;;5114323;28;20201;-60
2022/08/20 05:32:53;;;;;;;0.93;0.93;;;;;18.60;96072.00;;;;5114290;28;20733;-60
2022/08/20 05:35:21;;;;;;;0.50;0.50;;;;;18.50;96067.00;;;;5114375;28;20513;-60
2022/08/20 05:37:48;;;;;;;0.80;0.80;;;;;18.40;96064.00;;;;5114181;28;20516;-60
2022/08/20 05:40:15;;;;;;;0.77;0.77;;;;;18.40;96079.00;;;;5114243;28;20237;-61
2022/08/20 05:42:42;;;;;;;0.53;0.53;;;;;18.50;96074.00;;;;5114308;28;20251;-63
2022/08/20 05:45:09;;;;;;;1.80;1.63;;;;;18.60;96079.00;;;;5114293;28;20190;-60
2022/08/20 05:47:39;;;;;;;0.60;0.60;;;;;18.60;96074.00;;;;5113365;28;20197;-61
2022/08/20 05:50:07;;;;;;;0.83;0.83;;;;;18.70;96076.00;;;;5096346;28;20225;-62
2022/08/20 05:52:35;;;;;;;0.97;0.97;;;;;18.70;96078.00;;;;5096849;28;20213;-65
2022/08/20 05:55:01;;;;;;;0.70;0.70;;;;;18.60;96085.00;;;;5114226;28;20217;-62
2022/08/20 05:57:28;;;;;;;1.27;0.80;;;;;18.70;96086.00;;;;5114427;28;20190;-63
2022/08/20 05:59:55;;;;;;;0.70;0.70;;;;;18.60;96082.00;;;;5114288;28;20194;-63
2022/08/20 06:05:08;;;;;;;0.70;0.70;;;;;18.60;96081.00;;;;5114140;28;20202;-62
2022/08/20 06:07:35;;;;;;;0.50;0.50;;;;;18.50;96080.00;;;;5114034;28;20193;-63
2022/08/20 06:10:03;;;;;;;0.70;0.70;;;;;18.60;96078.00;;;;5114096;28;20225;-64
2022/08/20 06:12:29;;;;;;;1.47;1.37;;;;;18.30;96081.00;;;;5096021;28;20228;-63
2022/08/20 06:14:56;;;;;;;0.53;0.53;;;;;18.30;96078.00;;;;5113951;28;20193;-62
2022/08/20 06:17:23;;;;;;;0.80;0.80;;;;;18.40;96079.00;;;;5096090;28;20615;-63
2022/08/20 06:19:51;;;;;;;0.57;0.57;;;;;18.50;96080.00;;;;5096184;28;20263;-64
2022/08/20 06:22:17;;;;;;;1.03;1.03;;;;;18.60;96085.00;;;;5113705;28;20196;-63
2022/08/20 06:24:45;;;;;;;0.50;0.50;;;;;18.60;96080.00;;;;5113703;28;20205;-62
2022/08/20 06:27:14;;;;;;;0.80;0.80;;;;;18.70;96081.00;;;;5113693;28;20228;-61
2022/08/20 06:29:42;;;;;;;0.60;0.60;;;;;18.70;96026.00;;;;5113624;28;20217;-61
2022/08/20 06:32:09;;;;;;;1.03;0.93;;;;;18.70;96080.00;;;;5113792;28;20202;-65
2022/08/20 06:34:36;;;;;;;0.67;0.67;;;;;18.60;96073.00;;;;5113415;28;20217;-60
2022/08/20 06:37:15;;;;;;;0.80;0.80;;;;;18.60;96080.00;;;;5113431;28;20198;-60
2022/08/20 06:39:45;;;;;;;0.83;0.83;;;;;18.70;96084.00;;;;5113403;28;20725;-60
2022/08/20 06:42:12;;;;;;;0.60;0.60;;;;;18.80;96089.00;;;;5113384;28;20255;-61
2022/08/20 06:44:39;;;;;;;1.40;1.13;;;;;19.00;96089.00;;;;5113355;28;20208;-60
2022/08/20 06:47:06;;;;;;;0.90;0.90;;;;;19.10;96092.00;;;;5113684;28;20296;-62
2022/08/20 06:49:35;;;;;;;0.80;0.80;;;;;19.10;96081.00;;;;5113317;28;20345;-60
2022/08/20 06:52:03;;;;;;;0.50;0.50;;;;;19.10;96086.00;;;;5113223;28;20217;-60
2022/08/20 06:54:33;;;;;;;1.03;1.03;;;;;19.10;96092.00;;;;5113320;28;20598;-60
2022/08/20 06:57:01;;;;;;;0.90;0.90;;;;;19.30;96090.00;;;;5113113;28;20226;-60
2022/08/20 06:59:27;;;;;;;0.80;0.80;;;;;19.40;96086.00;;;;5116793;28;20720;-60
2022/08/20 07:01:59;;;;;;;0.57;0.57;;;;;19.30;96084.00;;;;5116788;28;20228;-62
2022/08/20 07:04:27;;;;;;;1.03;1.03;;;;;19.40;96083.00;;;;5116646;28;20198;-59
2022/08/20 07:06:56;;;;;;;0.70;0.70;;;;;19.40;96085.00;;;;5116499;28;20212;-60
2022/08/20 07:09:24;;;;;;;0.77;0.77;;;;;19.50;96087.00;;;;5098585;28;20312;-60
2022/08/20 07:11:53;;;;;;;0.60;0.60;;;;;19.60;96080.00;;;;5116678;28;20255;-60
2022/08/20 07:14:21;;;;;;;0.53;0.53;;;;;19.60;96087.00;;;;5116557;28;20657;-60
2022/08/20 07:16:48;;;;;;;0.70;0.70;;;;;19.70;96078.00;;;;5116628;28;20194;-60
2022/08/20 07:19:15;;;;;;;0.50;0.50;;;;;19.70;96087.00;;;;5116493;28;20292;-60
2022/08/20 07:21:42;;;;;;;0.73;0.73;;;;;19.80;96093.00;;;;5116784;28;20277;-60
2022/08/20 07:24:09;;;;;;;0.83;0.83;;;;;19.90;96087.00;;;;5116418;28;20337;-60
2022/08/20 07:26:36;;;;;;;0.63;0.63;;;;;19.70;96085.00;;;;5116301;28;20194;-60
2022/08/20 07:29:03;;;;;;;0.80;0.80;;;;;19.80;96090.00;;;;5116224;28;20279;-60
2022/08/20 07:34:15;;;;;;;1.07;1.07;;;;;20.10;96103.00;;;;5116216;28;20558;-60
2022/08/20 07:36:42;;;;;;;0.70;0.70;;;;;20.30;96098.00;;;;5116192;28;20186;-61
2022/08/20 07:39:09;;;;;;;0.80;0.80;;;;;20.30;96093.00;;;;5115975;28;20221;-60
2022/08/20 07:41:36;;;;;;;0.83;0.83;;;;;20.40;96102.00;;;;5098394;28;20190;-60
2022/08/20 07:44:03;;;;;;;1.13;0.87;;;;;20.60;96105.00;;;;5116075;28;20334;-61
2022/08/20 07:46:31;;;;;;;0.50;0.50;;;;;20.80;96107.00;;;;5116137;28;20198;-61
2022/08/20 07:48:59;;;;;;;0.63;0.63;;;;;20.90;96096.00;;;;5115724;28;20222;-61
2022/08/20 07:51:26;;;;;;;0.90;0.90;;;;;21.00;96104.00;;;;5115854;28;20266;-61
2022/08/20 07:53:53;;;;;;;0.70;0.70;;;;;21.10;96115.00;;;;5097831;28;20654;-58
2022/08/20 07:56:22;;;;;;;0.50;0.50;;;;;21.20;96115.00;;;;5115864;28;20230;-61
2022/08/20 07:58:52;;;;;;;0.80;0.80;;;;;21.30;96101.00;;;;5115797;28;20205;-63
2022/08/20 08:01:24;;;;;;;0.73;0.73;;;;;21.30;96113.00;;;;5115981;28;20656;-63
2022/08/20 08:03:51;;;;;;;0.50;0.50;;;;;21.40;96110.00;;;;5097936;28;20217;-61
2022/08/20 08:06:21;;;;;;;0.90;0.90;;;;;21.60;96114.00;;;;5115823;28;20202;-61
2022/08/20 08:08:51;;;;;;;0.93;0.93;;;;;21.60;96113.00;;;;5115485;28;20589;-62
2022/08/20 08:11:18;;;;;;;0.47;0.47;;;;;21.70;96112.00;;;;5115559;28;20205;-59
2022/08/20 08:13:46;;;;;;;0.50;0.50;;;;;21.90;96107.00;;;;5115535;28;20267;-60
2022/08/20 08:16:14;;;;;;;0.50;0.50;;;;;22.00;96112.00;;;;5097627;28;20202;-60
2022/08/20 08:18:43;;;;;;;0.60;0.60;;;;;21.80;96111.00;;;;5115453;28;20194;-60
2022/08/20 08:21:12;;;;;;;0.50;0.50;;;;;21.70;96116.00;;;;5097397;28;20214;-60
2022/08/20 08:23:43;;;;;;;0.40;0.40;;;;;21.60;96118.00;;;;5097331;28;20220;-60
2022/08/20 08:26:10;;;;;;;0.50;0.50;;;;;21.40;96114.00;;;;5115475;28;20245;-60
2022/08/20 08:28:38;;;;;;;0.50;0.50;;;;;21.20;96118.00;;;;5097743;28;20638;-60
2022/08/20 08:31:05;;;;;;;0.43;0.43;;;;;21.00;96110.00;;;;5115160;28;20210;-60
2022/08/20 08:33:32;;;;;;;0.37;0.37;;;;;21.10;96115.00;;;;5115215;28;20205;-60
2022/08/20 08:36:02;;;;;;;0.40;0.40;;;;;21.30;96118.00;;;;5115193;28;20287;-60
2022/08/20 08:38:30;;;;;;;0.77;0.77;;;;;21.40;96117.00;;;;5115155;28;20222;-60
2022/08/20 08:41:02;;;;;;;0.60;0.60;;;;;21.70;96116.00;;;;5114999;28;20210;-63
2022/08/20 08:43:30;;;;;;;1.33;1.03;;;;;21.80;96119.00;;;;5115162;28;20293;-60
2022/08/20 08:46:02;;;;;;;0.67;0.67;;;;;21.60;96114.00;;;;5115016;28;20217;-61
2022/08/20 08:48:34;;;;;;;0.57;0.57;;;;;21.60;96112.00;;;;5115189;28;20233;-60
2022/08/20 08:51:05;;;;;;;0.40;0.40;;;;;21.60;96119.00;;;;5115205;28;20214;-61
2022/08/20 08:53:39;;;;;;;0.50;0.50;;;;;21.70;96120.00;;;;5114956;28;20198;-60
2022/08/20 08:56:06;;;;;;;0.60;0.60;;;;;21.60;96125.00;;;;5114942;28;20549;-60
2022/08/20 08:58:34;;;;;;;0.57;0.57;;;;;21.40;96133.00;;;;5115008;28;20194;-60
2022/08/20 09:01:08;;;;;;;0.77;0.77;;;;;21.30;96132.00;;;;5114834;28;20233;-59
2022/08/20 09:03:39;;;;;;;0.57;0.57;;;;;21.50;96127.00;;;;5097187;28;20282;-59
2022/08/20 09:06:06;;;;;;;0.80;0.80;;;;;21.40;96124.00;;;;5114706;28;20204;-58
2022/08/20 09:08:51;;;;;;;0.53;0.53;;;;;21.50;96125.00;;;;5096715;28;20316;-58
2022/08/20 09:11:22;;;;;;;0.63;0.63;;;;;21.50;96126.00;;;;5114873;28;20198;-58
2022/08/20 09:13:49;;;;;;;0.50;0.50;;;;;21.70;96124.00;;;;5114690;28;20204;-59
2022/08/20 09:16:16;;;;;;;0.40;0.40;;;;;21.70;96128.00;;;;5114539;28;20201;-59
2022/08/20 09:18:43;;;;;;;1.17;1.07;;;;;21.70;96132.00;;;;5114725;28;20222;-59
2022/08/20 09:21:10;;;;;;;0.73;0.73;;;;;21.60;96096.00;;;;5095475;28;20194;-59
2022/08/20 09:23:37;;;;;;;0.83;0.83;;;;;21.80;96126.00;;;;5096665;28;20559;-63
2022/08/20 09:26:05;;;;;;;0.60;0.60;;;;;21.80;96128.00;;;;5114732;28;20194;-60
2022/08/20 09:28:32;;;;;;;0.40;0.40;;;;;21.50;96125.00;;;;5115145;28;20622;-64
2022/08/20 09:30:59;;;;;;;0.47;0.47;;;;;21.50;96124.00;;;;5096628;28;20691;-60
2022/08/20 09:33:26;;;;;;;0.40;0.40;;;;;21.20;96136.00;;;;5114588;28;20209;-60
2022/08/20 09:35:52;;;;;;;1.07;1.07;;;;;21.00;96143.00;;;;5114526;28;20637;-60
2022/08/20 09:38:19;;;;;;;0.43;0.43;;;;;21.10;96136.00;;;;5114245;28;20199;-60
2022/08/20 09:40:46;;;;;;;0.83;0.83;;;;;21.10;96135.00;;;;5114159;28;20697;-60
2022/08/20 09:43:16;;;;;;;0.40;0.40;;;;;21.10;96138.00;;;;5114465;28;20539;-60
2022/08/20 09:45:43;;;;;;;0.60;0.60;;;;;20.90;96144.00;;;;5096347;28;20260;-60
2022/08/20 09:48:10;;;;;;;0.70;0.70;;;;;20.60;96141.00;;;;5114027;28;20276;-62
2022/08/20 09:50:43;;;;;;;0.57;0.57;;;;;20.20;96151.00;;;;5095900;28;20730;-60
2022/08/20 09:53:10;;;;;;;0.50;0.50;;;;;20.30;96149.00;;;;5114031;28;20210;-60
2022/08/20 09:55:39;;;;;;;12.63;1.63;;;;;20.20;96146.00;;;;5113993;28;20499;-60
2022/08/20 09:58:15;;;;;;;0.47;0.47;;;;;20.20;96146.00;;;;5113900;28;20220;-60
2022/08/20 10:00:42;;;;;;;0.67;0.67;;;;;20.10;96152.00;;;;5113867;28;20201;-59
2022/08/20 10:03:09;;;;;;;0.70;0.70;;;;;20.00;96154.00;;;;5113814;28;20218;-60
2022/08/20 10:05:36;;;;;;;0.83;0.77;;;;;19.90;96161.00;;;;5113797;28;20194;-60
2022/08/20 10:08:05;;;;;;;0.63;0.60;;;;;20.00;96171.00;;;;5113610;28;20222;-60
2022/08/20 10:10:35;;;;;;;1.27;1.10;;;;;19.90;96168.00;;;;5113804;28;20190;-60
2022/08/20 10:13:02;;;;;;;0.60;0.60;;;;;19.80;96163.00;;;;5113772;28;20221;-60
2022/08/20 10:15:30;;;;;;;0.50;0.50;;;;;19.60;96164.00;;;;5113886;28;20178;-61
2022/08/20 10:17:57;;;;;;;0.83;0.83;;;;;19.70;96161.00;;;;5113704;28;20209;-58
2022/08/20 10:20:26;;;;;;;0.40;0.40;;;;;19.40;96161.00;;;;5113728;28;20186;-59
2022/08/20 10:22:53;;;;;;;0.40;0.40;;;;;19.60;96157.00;;;;5113822;28;20205;-59
2022/08/20 10:25:22;;;;;;;1.80;1.13;;;;;19.70;96162.00;;;;5113623;28;20213;-59
2022/08/20 10:27:49;;;;;;;0.43;0.43;;;;;19.80;96155.00;;;;5113610;28;20217;-59
2022/08/20 10:30:18;;;;;;;2.07;1.93;;;;;20.10;96149.00;;;;5113310;28;20234;-57
2022/08/20 10:32:45;;;;;;;0.60;0.60;;;;;20.30;96153.00;;;;5114872;28;20186;-59
2022/08/20 10:35:12;;;;;;;0.83;0.63;;;;;20.40;96144.00;;;;5117123;28;20225;-59
2022/08/20 10:37:42;;;;;;;0.60;0.60;;;;;20.60;96143.00;;;;5117228;28;20189;-59
2022/08/20 10:40:09;;;;;;;1.03;1.03;;;;;20.50;96134.00;;;;5117354;28;20194;-59
2022/08/20 10:42:36;;;;;;;0.40;0.40;;;;;20.40;96142.00;;;;5117209;28;20186;-59
2022/08/20 10:45:04;;;;;;;0.40;0.40;;;;;20.30;96131.00;;;;5117524;28;20202;-59
2022/08/20 10:47:32;;;;;;;0.63;0.63;;;;;20.30;96137.00;;;;5098976;28;20316;-59
2022/08/20 10:50:01;;;;;;;0.40;0.40;;;;;20.20;96141.00;;;;5116902;28;20682;-61
2022/08/20 10:52:29;;;;;;;0.40;0.40;;;;;20.40;96131.00;;;;5116988;28;20213;-61
2022/08/20 10:54:56;;;;;;;0.40;0.40;;;;;20.60;96128.00;;;;5117171;28;20222;-62
2022/08/20 10:57:27;;;;;;;0.30;0.30;;;;;20.40;96086.00;;;;5116915;28;20544;-62
2022/08/20 10:59:56;;;;;;;0.37;0.37;;;;;20.20;96132.00;;;;5116742;28;20198;-61
2022/08/20 11:02:24;;;;;;;0.30;0.30;;;;;20.10;96132.00;;;;5098721;28;20213;-57
2022/08/20 11:04:52;;;;;;;0.40;0.40;;;;;20.00;96138.00;;;;5116664;28;20208;-59
2022/08/20 11:07:24;;;;;;;0.43;0.43;;;;;20.10;96132.00;;;;5116663;28;20217;-59
2022/08/20 11:09:55;;;;;;;0.50;0.50;;;;;20.10;96134.00;;;;5116717;28;20316;-58
2022/08/20 11:12:22;;;;;;;0.50;0.50;;;;;20.10;96135.00;;;;5116665;28;20197;-59
2022/08/20 11:14:52;;;;;;;0.30;0.30;;;;;20.10;96130.00;;;;5116252;28;20222;-58
2022/08/20 11:17:21;;;;;;;0.43;0.43;;;;;20.10;96137.00;;;;5116544;28;20285;-63
2022/08/20 11:19:48;;;;;;;0.40;0.40;;;;;20.30;96144.00;;;;5116451;28;20225;-59
2022/08/20 11:22:15;;;;;;;0.50;0.50;;;;;20.60;96136.00;;;;5116425;28;20197;-58
2022/08/20 11:24:42;;;;;;;0.40;0.40;;;;;20.30;96137.00;;;;5116423;28;20198;-60
2022/08/20 11:27:10;;;;;;;0.50;0.50;;;;;20.50;96139.00;;;;5116524;28;20333;-61
2022/08/20 11:29:38;;;;;;;0.40;0.40;;;;;20.60;96131.00;;;;5116195;28;20221;-58
2022/08/20 11:32:05;;;;;;;0.43;0.43;;;;;20.60;96132.00;;;;5116244;28;20220;-59
2022/08/20 11:34:32;;;;;;;0.40;0.40;;;;;20.60;96132.00;;;;5116276;28;20218;-59
2022/08/20 11:37:01;;;;;;;0.30;0.30;;;;;20.90;96130.00;;;;5116383;28;20309;-59
2022/08/20 11:39:28;;;;;;;0.40;0.40;;;;;21.60;96131.00;;;;5116453;28;20620;-59
2022/08/20 11:41:55;;;;;;;0.40;0.40;;;;;21.60;96123.00;;;;5098358;28;20229;-59
2022/08/20 11:44:23;;;;;;;0.40;0.40;;;;;22.10;96116.00;;;;5114989;28;20236;-58
2022/08/20 11:46:50;;;;;;;0.40;0.40;;;;;21.90;96128.00;;;;5116045;28;20220;-59
2022/08/20 11:49:16;;;;;;;0.30;0.30;;;;;21.80;96123.00;;;;5115979;28;20300;-58
2022/08/20 11:51:43;;;;;;;0.70;0.70;;;;;21.50;96132.00;;;;5116032;28;20281;-59
2022/08/20 11:54:10;;;;;;;0.40;0.40;;;;;21.40;96136.00;;;;5097895;28;20197;-59
2022/08/20 11:56:37;;;;;;;0.60;0.60;;;;;21.40;96140.00;;;;5115884;28;20198;-57
2022/08/20 11:59:06;;;;;;;0.60;0.60;;;;;21.50;96137.00;;;;5097815;28;20222;-59
2022/08/20 12:01:34;;;;;;;0.70;0.70;;;;;21.20;96137.00;;;;5115851;28;20198;-59
2022/08/20 12:04:01;;;;;;;0.50;0.50;;;;;21.10;96137.00;;;;5115762;28;20283;-58
2022/08/20 12:06:27;;;;;;;0.40;0.40;;;;;21.00;96142.00;;;;5115836;28;20205;-59
2022/08/20 12:08:57;;;;;;;0.63;0.63;;;;;21.20;96141.00;;;;5115567;28;20282;-59
2022/08/20 12:11:24;;;;;;;0.40;0.40;;;;;21.30;96143.00;;;;5115886;28;20273;-59
2022/08/20 12:13:50;;;;;;;0.30;0.30;;;;;21.50;96139.00;;;;5115572;28;20212;-59
2022/08/20 12:16:18;;;;;;;0.40;0.40;;;;;21.80;96140.00;;;;5117181;28;20732;-58
2022/08/20 12:18:46;;;;;;;0.30;0.30;;;;;21.90;96142.00;;;;5116823;28;20198;-63
2022/08/20 12:21:13;;;;;;;0.53;0.53;;;;;22.20;96134.00;;;;5115633;28;20218;-59
2022/08/20 12:23:40;;;;;;;0.50;0.50;;;;;22.70;96130.00;;;;5097348;28;20218;-59
2022/08/20 12:26:09;;;;;;;0.33;0.33;;;;;23.00;96137.00;;;;5115222;28;20323;-60
2022/08/20 12:28:36;;;;;;;0.57;0.57;;;;;23.50;96127.00;;;;5115288;28;20214;-55
2022/08/20 12:31:05;;;;;;;0.50;0.50;;;;;23.30;96130.00;;;;5097634;28;20511;-60
2022/08/20 12:33:34;;;;;;;0.30;0.30;;;;;22.90;96130.00;;;;5115321;28;20198;-60